sensor_id;sensor_type;location;lat;lon;timestamp;P1;durP1;ratioP1;P2;durP2;ratioP2
12758;SDS011;20944;47.048;15.390;2022-09-17T00:01:30;1.13;;;0.80;;
12758;SDS011;20944;47.048;15.390;2022-09-17T00:04:00;0.40;;;0.40;;
12758;SDS011;20944;47.048;15.390;2022-09-17T00:06:30;0.50;;;0.50;;
12758;SDS011;20944;47.048;15.390;2022-09-17T00:09:00;1.27;;;0.60;;
12758;SDS011;20944;47.048;15.390;2022-09-17T00:11:29;0.70;;;0.60;;
12758;SDS011;20944;47.048;15.390;2022-09-17T00:14:00;1.13;;;0.60;;
12758;SDS011;20944;47.048;15.390;2022-09-17T00:16:31;0.80;;;0.67;;
12758;SDS011;20944;47.048;15.390;2022-09-17T00:19:03;1.80;;;0.50;;
12758;SDS011;20944;47.048;15.390;2022-09-17T00:21:33;0.87;;;0.50;;
12758;SDS011;20944;47.048;15.390;2022-09-17T00:24:02;0.40;;;0.40;;
12758;SDS011;20944;47.048;15.390;2022-09-17T00:26:33;0.57;;;0.40;;
12758;SDS011;20944;47.048;15.390;2022-09-17T00:29:02;0.60;;;0.60;;
12758;SDS011;20944;47.048;15.390;2022-09-17T00:31:31;0.40;;;0.40;;
12758;SDS011;20944;47.048;15.390;2022-09-17T00:34:03;0.83;;;0.60;;
12758;SDS011;20944;47.048;15.390;2022-09-17T00:36:33;0.50;;;0.50;;
12758;SDS011;20944;47.048;15.390;2022-09-17T00:39:02;1.00;;;0.60;;
12758;SDS011;20944;47.048;15.390;2022-09-17T00:41:32;0.60;;;0.60;;
12758;SDS011;20944;47.048;15.390;2022-09-17T00:47:18;0.57;;;0.57;;
12758;SDS011;20944;47.048;15.390;2022-09-17T00:49:53;0.50;;;0.50;;
12758;SDS011;20944;47.048;15.390;2022-09-17T00:52:25;0.60;;;0.50;;
12758;SDS011;20944;47.048;15.390;2022-09-17T00:54:58;0.40;;;0.40;;
12758;SDS011;20944;47.048;15.390;2022-09-17T00:57:32;1.03;;;0.53;;
12758;SDS011;20944;47.048;15.390;2022-09-17T01:00:03;0.67;;;0.60;;
12758;SDS011;20944;47.048;15.390;2022-09-17T01:02:33;0.60;;;0.53;;
12758;SDS011;20944;47.048;15.390;2022-09-17T01:05:03;0.60;;;0.50;;
12758;SDS011;20944;47.048;15.390;2022-09-17T01:07:37;1.30;;;0.60;;
12758;SDS011;20944;47.048;15.390;2022-09-17T01:10:30;0.80;;;0.53;;
12758;SDS011;20944;47.048;15.390;2022-09-17T01:13:16;1.33;;;0.60;;
12758;SDS011;20944;47.048;15.390;2022-09-17T01:15:54;0.80;;;0.50;;
12758;SDS011;20944;47.048;15.390;2022-09-17T01:18:33;2.17;;;0.70;;
12758;SDS011;20944;47.048;15.390;2022-09-17T01:24:21;1.13;;;0.80;;
12758;SDS011;20944;47.048;15.390;2022-09-17T01:27:21;1.10;;;1.00;;
12758;SDS011;20944;47.048;15.390;2022-09-17T01:30:15;0.90;;;0.77;;
12758;SDS011;20944;47.048;15.390;2022-09-17T01:32:56;1.43;;;1.20;;
12758;SDS011;20944;47.048;15.390;2022-09-17T01:35:31;1.43;;;1.10;;
12758;SDS011;20944;47.048;15.390;2022-09-17T01:38:05;0.70;;;0.70;;
12758;SDS011;20944;47.048;15.390;2022-09-17T01:40:43;0.90;;;0.80;;
12758;SDS011;20944;47.048;15.390;2022-09-17T01:43:18;0.63;;;0.63;;
12758;SDS011;20944;47.048;15.390;2022-09-17T01:45:55;0.63;;;0.63;;
12758;SDS011;20944;47.048;15.390;2022-09-17T01:48:30;1.27;;;0.80;;
12758;SDS011;20944;47.048;15.390;2022-09-17T01:51:04;1.00;;;0.80;;
12758;SDS011;20944;47.048;15.390;2022-09-17T01:53:37;1.23;;;0.73;;
12758;SDS011;20944;47.048;15.390;2022-09-17T01:56:12;1.07;;;0.80;;
12758;SDS011;20944;47.048;15.390;2022-09-17T01:58:44;0.73;;;0.63;;
12758;SDS011;20944;47.048;15.390;2022-09-17T02:01:20;1.90;;;0.90;;
12758;SDS011;20944;47.048;15.390;2022-09-17T02:03:52;1.60;;;0.60;;
12758;SDS011;20944;47.048;15.390;2022-09-17T02:06:26;0.70;;;0.70;;
12758;SDS011;20944;47.048;15.390;2022-09-17T02:08:59;1.23;;;0.60;;
12758;SDS011;20944;47.048;15.390;2022-09-17T02:11:31;1.03;;;0.60;;
12758;SDS011;20944;47.048;15.390;2022-09-17T02:14:04;1.57;;;0.70;;
12758;SDS011;20944;47.048;15.390;2022-09-17T02:16:38;1.00;;;0.67;;
12758;SDS011;20944;47.048;15.390;2022-09-17T02:19:13;0.67;;;0.67;;
12758;SDS011;20944;47.048;15.390;2022-09-17T02:21:46;1.20;;;0.77;;
12758;SDS011;20944;47.048;15.390;2022-09-17T02:24:21;0.97;;;0.80;;
12758;SDS011;20944;47.048;15.390;2022-09-17T02:26:54;2.63;;;0.77;;
12758;SDS011;20944;47.048;15.390;2022-09-17T02:29:25;0.80;;;0.77;;
12758;SDS011;20944;47.048;15.390;2022-09-17T02:32:00;1.30;;;0.63;;
12758;SDS011;20944;47.048;15.390;2022-09-17T02:34:28;0.83;;;0.83;;
12758;SDS011;20944;47.048;15.390;2022-09-17T02:36:57;0.50;;;0.50;;
12758;SDS011;20944;47.048;15.390;2022-09-17T02:39:26;0.97;;;0.90;;
12758;SDS011;20944;47.048;15.390;2022-09-17T02:41:57;0.80;;;0.80;;
12758;SDS011;20944;47.048;15.390;2022-09-17T02:44:35;1.20;;;0.77;;
12758;SDS011;20944;47.048;15.390;2022-09-17T02:47:18;0.53;;;0.53;;
12758;SDS011;20944;47.048;15.390;2022-09-17T02:50:01;0.70;;;0.70;;
12758;SDS011;20944;47.048;15.390;2022-09-17T02:52:43;0.57;;;0.57;;
12758;SDS011;20944;47.048;15.390;2022-09-17T02:55:22;0.80;;;0.63;;
12758;SDS011;20944;47.048;15.390;2022-09-17T02:57:57;0.80;;;0.60;;
12758;SDS011;20944;47.048;15.390;2022-09-17T03:00:32;0.70;;;0.70;;
12758;SDS011;20944;47.048;15.390;2022-09-17T03:03:04;0.60;;;0.60;;
12758;SDS011;20944;47.048;15.390;2022-09-17T03:05:39;0.40;;;0.40;;
12758;SDS011;20944;47.048;15.390;2022-09-17T03:08:11;1.00;;;0.80;;
12758;SDS011;20944;47.048;15.390;2022-09-17T03:10:42;0.50;;;0.50;;
12758;SDS011;20944;47.048;15.390;2022-09-17T03:13:10;0.87;;;0.73;;
12758;SDS011;20944;47.048;15.390;2022-09-17T03:15:38;1.00;;;0.60;;
12758;SDS011;20944;47.048;15.390;2022-09-17T03:18:07;0.70;;;0.53;;
12758;SDS011;20944;47.048;15.390;2022-09-17T03:20:36;0.80;;;0.60;;
12758;SDS011;20944;47.048;15.390;2022-09-17T03:23:04;0.53;;;0.50;;
12758;SDS011;20944;47.048;15.390;2022-09-17T03:25:32;0.60;;;0.60;;
12758;SDS011;20944;47.048;15.390;2022-09-17T03:28:00;1.10;;;0.53;;
12758;SDS011;20944;47.048;15.390;2022-09-17T03:30:29;0.90;;;0.57;;
12758;SDS011;20944;47.048;15.390;2022-09-17T03:32:57;0.60;;;0.60;;
12758;SDS011;20944;47.048;15.390;2022-09-17T03:35:27;0.67;;;0.67;;
12758;SDS011;20944;47.048;15.390;2022-09-17T03:37:55;0.87;;;0.50;;
12758;SDS011;20944;47.048;15.390;2022-09-17T03:40:23;0.87;;;0.70;;
12758;SDS011;20944;47.048;15.390;2022-09-17T03:42:52;0.93;;;0.70;;
12758;SDS011;20944;47.048;15.390;2022-09-17T03:45:20;0.97;;;0.63;;
12758;SDS011;20944;47.048;15.390;2022-09-17T03:47:49;1.53;;;0.70;;
12758;SDS011;20944;47.048;15.390;2022-09-17T03:50:17;1.20;;;0.90;;
12758;SDS011;20944;47.048;15.390;2022-09-17T03:52:46;2.73;;;0.70;;
12758;SDS011;20944;47.048;15.390;2022-09-17T03:55:15;0.60;;;0.57;;
12758;SDS011;20944;47.048;15.390;2022-09-17T03:57:43;0.50;;;0.50;;
12758;SDS011;20944;47.048;15.390;2022-09-17T04:00:12;0.63;;;0.60;;
12758;SDS011;20944;47.048;15.390;2022-09-17T04:02:43;0.40;;;0.40;;
12758;SDS011;20944;47.048;15.390;2022-09-17T04:05:11;1.13;;;0.50;;
12758;SDS011;20944;47.048;15.390;2022-09-17T04:07:39;0.50;;;0.50;;
12758;SDS011;20944;47.048;15.390;2022-09-17T04:10:09;0.50;;;0.50;;
12758;SDS011;20944;47.048;15.390;2022-09-17T04:12:37;1.10;;;0.77;;
12758;SDS011;20944;47.048;15.390;2022-09-17T04:15:06;0.50;;;0.50;;
12758;SDS011;20944;47.048;15.390;2022-09-17T04:17:35;0.67;;;0.40;;
12758;SDS011;20944;47.048;15.390;2022-09-17T04:20:03;0.90;;;0.70;;
12758;SDS011;20944;47.048;15.390;2022-09-17T04:22:32;0.67;;;0.50;;
12758;SDS011;20944;47.048;15.390;2022-09-17T04:25:01;0.60;;;0.60;;
12758;SDS011;20944;47.048;15.390;2022-09-17T04:27:30;0.50;;;0.50;;
12758;SDS011;20944;47.048;15.390;2022-09-17T04:29:59;1.23;;;0.60;;
12758;SDS011;20944;47.048;15.390;2022-09-17T04:32:27;0.67;;;0.60;;
12758;SDS011;20944;47.048;15.390;2022-09-17T04:34:55;0.73;;;0.70;;
12758;SDS011;20944;47.048;15.390;2022-09-17T04:37:23;0.53;;;0.53;;
12758;SDS011;20944;47.048;15.390;2022-09-17T04:39:51;0.57;;;0.53;;
12758;SDS011;20944;47.048;15.390;2022-09-17T04:42:20;3.37;;;0.60;;
12758;SDS011;20944;47.048;15.390;2022-09-17T04:44:50;0.53;;;0.53;;
12758;SDS011;20944;47.048;15.390;2022-09-17T04:47:18;0.70;;;0.70;;
12758;SDS011;20944;47.048;15.390;2022-09-17T04:49:47;1.80;;;0.90;;
12758;SDS011;20944;47.048;15.390;2022-09-17T04:52:15;1.33;;;1.00;;
12758;SDS011;20944;47.048;15.390;2022-09-17T04:54:43;1.50;;;0.80;;
12758;SDS011;20944;47.048;15.390;2022-09-17T04:57:11;1.67;;;1.03;;
12758;SDS011;20944;47.048;15.390;2022-09-17T04:59:40;2.33;;;1.40;;
12758;SDS011;20944;47.048;15.390;2022-09-17T05:02:09;1.20;;;1.10;;
12758;SDS011;20944;47.048;15.390;2022-09-17T05:04:38;1.80;;;1.23;;
12758;SDS011;20944;47.048;15.390;2022-09-17T05:07:06;1.77;;;1.30;;
12758;SDS011;20944;47.048;15.390;2022-09-17T05:09:39;1.57;;;1.30;;
12758;SDS011;20944;47.048;15.390;2022-09-17T05:12:07;1.40;;;1.20;;
12758;SDS011;20944;47.048;15.390;2022-09-17T05:14:35;1.27;;;0.97;;
12758;SDS011;20944;47.048;15.390;2022-09-17T05:17:04;2.17;;;1.30;;
12758;SDS011;20944;47.048;15.390;2022-09-17T05:19:33;2.87;;;1.57;;
12758;SDS011;20944;47.048;15.390;2022-09-17T05:22:01;2.40;;;1.60;;
12758;SDS011;20944;47.048;15.390;2022-09-17T05:24:30;1.97;;;1.40;;
12758;SDS011;20944;47.048;15.390;2022-09-17T05:26:59;4.43;;;1.83;;
12758;SDS011;20944;47.048;15.390;2022-09-17T05:29:27;2.07;;;1.20;;
12758;SDS011;20944;47.048;15.390;2022-09-17T05:31:55;1.80;;;1.57;;
12758;SDS011;20944;47.048;15.390;2022-09-17T05:34:23;3.47;;;1.63;;
12758;SDS011;20944;47.048;15.390;2022-09-17T05:36:53;2.00;;;1.80;;
12758;SDS011;20944;47.048;15.390;2022-09-17T05:39:21;2.07;;;1.87;;
12758;SDS011;20944;47.048;15.390;2022-09-17T05:41:51;2.63;;;1.93;;
12758;SDS011;20944;47.048;15.390;2022-09-17T05:44:19;3.43;;;1.70;;
12758;SDS011;20944;47.048;15.390;2022-09-17T05:46:47;2.80;;;1.97;;
12758;SDS011;20944;47.048;15.390;2022-09-17T05:49:16;4.73;;;2.73;;
12758;SDS011;20944;47.048;15.390;2022-09-17T05:51:44;3.30;;;2.50;;
12758;SDS011;20944;47.048;15.390;2022-09-17T05:54:13;3.33;;;2.20;;
12758;SDS011;20944;47.048;15.390;2022-09-17T05:56:42;2.83;;;2.27;;
12758;SDS011;20944;47.048;15.390;2022-09-17T05:59:10;1.90;;;1.73;;
12758;SDS011;20944;47.048;15.390;2022-09-17T06:01:40;1.67;;;1.47;;
12758;SDS011;20944;47.048;15.390;2022-09-17T06:04:09;1.43;;;1.33;;
12758;SDS011;20944;47.048;15.390;2022-09-17T06:06:37;2.80;;;1.10;;
12758;SDS011;20944;47.048;15.390;2022-09-17T06:09:07;1.90;;;1.60;;
12758;SDS011;20944;47.048;15.390;2022-09-17T06:11:37;2.10;;;1.73;;
12758;SDS011;20944;47.048;15.390;2022-09-17T06:14:05;3.33;;;1.80;;
12758;SDS011;20944;47.048;15.390;2022-09-17T06:16:34;2.63;;;2.30;;
12758;SDS011;20944;47.048;15.390;2022-09-17T06:19:02;2.93;;;1.90;;
12758;SDS011;20944;47.048;15.390;2022-09-17T06:21:30;2.90;;;2.60;;
12758;SDS011;20944;47.048;15.390;2022-09-17T06:23:59;2.93;;;2.33;;
12758;SDS011;20944;47.048;15.390;2022-09-17T06:26:27;2.97;;;2.40;;
12758;SDS011;20944;47.048;15.390;2022-09-17T06:28:58;3.57;;;2.20;;
12758;SDS011;20944;47.048;15.390;2022-09-17T06:31:27;4.13;;;2.47;;
12758;SDS011;20944;47.048;15.390;2022-09-17T06:33:56;3.50;;;1.97;;
12758;SDS011;20944;47.048;15.390;2022-09-17T06:36:24;2.37;;;2.13;;
12758;SDS011;20944;47.048;15.390;2022-09-17T06:38:52;2.30;;;1.77;;
12758;SDS011;20944;47.048;15.390;2022-09-17T06:41:20;2.20;;;1.80;;
12758;SDS011;20944;47.048;15.390;2022-09-17T06:43:51;2.47;;;2.03;;
12758;SDS011;20944;47.048;15.390;2022-09-17T06:46:21;2.23;;;2.03;;
12758;SDS011;20944;47.048;15.390;2022-09-17T06:48:49;5.50;;;3.80;;
12758;SDS011;20944;47.048;15.390;2022-09-17T06:51:18;6.57;;;4.73;;
12758;SDS011;20944;47.048;15.390;2022-09-17T06:53:48;6.57;;;4.20;;
12758;SDS011;20944;47.048;15.390;2022-09-17T06:56:16;7.17;;;4.43;;
12758;SDS011;20944;47.048;15.390;2022-09-17T06:58:44;10.00;;;4.20;;
12758;SDS011;20944;47.048;15.390;2022-09-17T07:01:13;6.27;;;4.53;;
12758;SDS011;20944;47.048;15.390;2022-09-17T07:03:43;7.57;;;5.00;;
12758;SDS011;20944;47.048;15.390;2022-09-17T07:06:11;9.73;;;5.17;;
12758;SDS011;20944;47.048;15.390;2022-09-17T07:08:39;7.63;;;5.00;;
12758;SDS011;20944;47.048;15.390;2022-09-17T07:11:07;6.97;;;4.93;;
12758;SDS011;20944;47.048;15.390;2022-09-17T07:13:36;6.73;;;4.60;;
12758;SDS011;20944;47.048;15.390;2022-09-17T07:16:04;8.00;;;4.80;;
12758;SDS011;20944;47.048;15.390;2022-09-17T07:18:33;7.83;;;4.93;;
12758;SDS011;20944;47.048;15.390;2022-09-17T07:21:04;6.23;;;5.40;;
12758;SDS011;20944;47.048;15.390;2022-09-17T07:23:34;8.87;;;5.37;;
12758;SDS011;20944;47.048;15.390;2022-09-17T07:26:04;5.67;;;4.30;;
12758;SDS011;20944;47.048;15.390;2022-09-17T07:28:34;8.07;;;5.20;;
12758;SDS011;20944;47.048;15.390;2022-09-17T07:31:06;9.43;;;6.10;;
12758;SDS011;20944;47.048;15.390;2022-09-17T07:33:41;8.17;;;5.20;;
12758;SDS011;20944;47.048;15.390;2022-09-17T07:36:12;6.57;;;4.60;;
12758;SDS011;20944;47.048;15.390;2022-09-17T07:38:43;7.43;;;4.50;;
12758;SDS011;20944;47.048;15.390;2022-09-17T07:41:13;6.33;;;4.47;;
12758;SDS011;20944;47.048;15.390;2022-09-17T07:43:42;6.70;;;4.10;;
12758;SDS011;20944;47.048;15.390;2022-09-17T07:46:13;5.30;;;3.80;;
12758;SDS011;20944;47.048;15.390;2022-09-17T07:48:42;4.43;;;3.50;;
12758;SDS011;20944;47.048;15.390;2022-09-17T07:51:16;6.33;;;4.20;;
12758;SDS011;20944;47.048;15.390;2022-09-17T07:53:46;3.87;;;3.30;;
12758;SDS011;20944;47.048;15.390;2022-09-17T07:56:17;4.97;;;3.87;;
12758;SDS011;20944;47.048;15.390;2022-09-17T07:58:45;5.07;;;3.37;;
12758;SDS011;20944;47.048;15.390;2022-09-17T08:01:13;5.20;;;3.53;;
12758;SDS011;20944;47.048;15.390;2022-09-17T08:03:46;4.90;;;3.17;;
12758;SDS011;20944;47.048;15.390;2022-09-17T08:06:18;3.30;;;3.00;;
12758;SDS011;20944;47.048;15.390;2022-09-17T08:08:47;3.93;;;3.10;;
12758;SDS011;20944;47.048;15.390;2022-09-17T08:11:17;4.63;;;3.07;;
12758;SDS011;20944;47.048;15.390;2022-09-17T08:14:08;4.87;;;3.30;;
12758;SDS011;20944;47.048;15.390;2022-09-17T08:16:38;6.07;;;3.67;;
12758;SDS011;20944;47.048;15.390;2022-09-17T08:19:07;3.37;;;2.70;;
12758;SDS011;20944;47.048;15.390;2022-09-17T08:21:37;4.43;;;3.23;;
12758;SDS011;20944;47.048;15.390;2022-09-17T08:24:06;3.47;;;2.90;;
12758;SDS011;20944;47.048;15.390;2022-09-17T08:26:34;5.33;;;2.77;;
12758;SDS011;20944;47.048;15.390;2022-09-17T08:29:02;5.17;;;2.97;;
12758;SDS011;20944;47.048;15.390;2022-09-17T08:31:31;3.67;;;2.67;;
12758;SDS011;20944;47.048;15.390;2022-09-17T08:33:59;3.07;;;2.40;;
12758;SDS011;20944;47.048;15.390;2022-09-17T08:36:27;2.97;;;2.43;;
12758;SDS011;20944;47.048;15.390;2022-09-17T08:38:58;3.07;;;2.30;;
12758;SDS011;20944;47.048;15.390;2022-09-17T08:41:28;3.33;;;2.40;;
12758;SDS011;20944;47.048;15.390;2022-09-17T08:44:12;4.13;;;2.50;;
12758;SDS011;20944;47.048;15.390;2022-09-17T08:46:48;2.33;;;2.03;;
12758;SDS011;20944;47.048;15.390;2022-09-17T08:49:22;2.93;;;2.33;;
12758;SDS011;20944;47.048;15.390;2022-09-17T08:54:54;3.43;;;2.10;;
12758;SDS011;20944;47.048;15.390;2022-09-17T08:57:31;3.50;;;2.37;;
12758;SDS011;20944;47.048;15.390;2022-09-17T09:00:11;2.70;;;2.30;;
12758;SDS011;20944;47.048;15.390;2022-09-17T09:02:52;5.13;;;2.90;;
12758;SDS011;20944;47.048;15.390;2022-09-17T09:05:27;2.90;;;2.60;;
12758;SDS011;20944;47.048;15.390;2022-09-17T09:08:01;2.97;;;2.23;;
12758;SDS011;20944;47.048;15.390;2022-09-17T09:10:35;3.63;;;2.10;;
12758;SDS011;20944;47.048;15.390;2022-09-17T09:13:14;3.63;;;2.47;;
12758;SDS011;20944;47.048;15.390;2022-09-17T09:15:48;3.53;;;2.50;;
12758;SDS011;20944;47.048;15.390;2022-09-17T09:18:22;2.67;;;2.30;;
12758;SDS011;20944;47.048;15.390;2022-09-17T09:20:54;5.90;;;2.37;;
12758;SDS011;20944;47.048;15.390;2022-09-17T09:23:31;2.40;;;2.00;;
12758;SDS011;20944;47.048;15.390;2022-09-17T09:26:12;2.63;;;1.90;;
12758;SDS011;20944;47.048;15.390;2022-09-17T09:28:47;2.33;;;1.93;;
12758;SDS011;20944;47.048;15.390;2022-09-17T09:31:35;2.13;;;1.90;;
12758;SDS011;20944;47.048;15.390;2022-09-17T09:34:22;2.97;;;2.10;;
12758;SDS011;20944;47.048;15.390;2022-09-17T09:36:53;4.13;;;2.30;;
12758;SDS011;20944;47.048;15.390;2022-09-17T09:39:30;2.77;;;1.67;;
12758;SDS011;20944;47.048;15.390;2022-09-17T09:42:12;2.60;;;1.90;;
12758;SDS011;20944;47.048;15.390;2022-09-17T09:44:46;1.53;;;1.40;;
12758;SDS011;20944;47.048;15.390;2022-09-17T09:47:24;2.10;;;1.50;;
12758;SDS011;20944;47.048;15.390;2022-09-17T09:50:23;2.27;;;1.27;;
12758;SDS011;20944;47.048;15.390;2022-09-17T09:53:21;1.37;;;1.27;;
12758;SDS011;20944;47.048;15.390;2022-09-17T09:56:10;1.67;;;1.57;;
12758;SDS011;20944;47.048;15.390;2022-09-17T09:58:53;1.77;;;1.60;;
12758;SDS011;20944;47.048;15.390;2022-09-17T10:01:21;1.53;;;1.30;;
12758;SDS011;20944;47.048;15.390;2022-09-17T10:03:51;6.33;;;1.63;;
12758;SDS011;20944;47.048;15.390;2022-09-17T10:06:21;1.23;;;1.13;;
12758;SDS011;20944;47.048;15.390;2022-09-17T10:09:08;2.17;;;1.57;;
12758;SDS011;20944;47.048;15.390;2022-09-17T10:11:38;2.00;;;1.30;;
12758;SDS011;20944;47.048;15.390;2022-09-17T10:14:21;2.40;;;1.70;;
12758;SDS011;20944;47.048;15.390;2022-09-17T10:17:00;1.77;;;1.50;;
12758;SDS011;20944;47.048;15.390;2022-09-17T10:19:38;2.50;;;1.80;;
12758;SDS011;20944;47.048;15.390;2022-09-17T10:22:17;3.17;;;2.00;;
12758;SDS011;20944;47.048;15.390;2022-09-17T10:24:50;6.93;;;2.07;;
12758;SDS011;20944;47.048;15.390;2022-09-17T10:27:20;3.07;;;2.37;;
12758;SDS011;20944;47.048;15.390;2022-09-17T10:29:53;1.97;;;1.77;;
12758;SDS011;20944;47.048;15.390;2022-09-17T10:32:30;2.10;;;1.93;;
12758;SDS011;20944;47.048;15.390;2022-09-17T10:34:59;1.47;;;1.33;;
12758;SDS011;20944;47.048;15.390;2022-09-17T10:37:31;0.70;;;0.70;;
12758;SDS011;20944;47.048;15.390;2022-09-17T10:40:24;0.67;;;0.63;;
12758;SDS011;20944;47.048;15.390;2022-09-17T10:43:15;3.20;;;1.50;;
12758;SDS011;20944;47.048;15.390;2022-09-17T10:45:56;1.60;;;1.40;;
12758;SDS011;20944;47.048;15.390;2022-09-17T10:48:27;1.63;;;1.23;;
12758;SDS011;20944;47.048;15.390;2022-09-17T10:50:59;1.27;;;1.10;;
12758;SDS011;20944;47.048;15.390;2022-09-17T10:53:29;2.40;;;1.03;;
12758;SDS011;20944;47.048;15.390;2022-09-17T10:56:00;2.40;;;1.00;;
12758;SDS011;20944;47.048;15.390;2022-09-17T10:58:41;0.67;;;0.67;;
12758;SDS011;20944;47.048;15.390;2022-09-17T11:01:26;0.60;;;0.60;;
12758;SDS011;20944;47.048;15.390;2022-09-17T11:04:09;0.40;;;0.40;;
12758;SDS011;20944;47.048;15.390;2022-09-17T11:06:57;0.73;;;0.50;;
12758;SDS011;20944;47.048;15.390;2022-09-17T11:09:40;0.73;;;0.50;;
12758;SDS011;20944;47.048;15.390;2022-09-17T11:12:30;0.30;;;0.30;;
12758;SDS011;20944;47.048;15.390;2022-09-17T11:15:10;0.37;;;0.37;;
12758;SDS011;20944;47.048;15.390;2022-09-17T11:20:57;0.80;;;0.40;;
12758;SDS011;20944;47.048;15.390;2022-09-17T11:24:14;0.73;;;0.40;;
12758;SDS011;20944;47.048;15.390;2022-09-17T11:27:14;0.30;;;0.30;;
12758;SDS011;20944;47.048;15.390;2022-09-17T11:30:01;0.53;;;0.40;;
12758;SDS011;20944;47.048;15.390;2022-09-17T11:32:42;0.77;;;0.40;;
12758;SDS011;20944;47.048;15.390;2022-09-17T11:35:35;0.20;;;0.20;;
12758;SDS011;20944;47.048;15.390;2022-09-17T11:38:09;0.97;;;0.30;;
12758;SDS011;20944;47.048;15.390;2022-09-17T11:40:43;0.47;;;0.40;;
12758;SDS011;20944;47.048;15.390;2022-09-17T11:43:20;0.30;;;0.30;;
12758;SDS011;20944;47.048;15.390;2022-09-17T11:45:56;2.70;;;0.30;;
12758;SDS011;20944;47.048;15.390;2022-09-17T11:48:31;0.30;;;0.30;;
12758;SDS011;20944;47.048;15.390;2022-09-17T11:51:06;0.70;;;0.27;;
12758;SDS011;20944;47.048;15.390;2022-09-17T11:53:45;0.60;;;0.37;;
12758;SDS011;20944;47.048;15.390;2022-09-17T11:56:19;0.57;;;0.30;;
12758;SDS011;20944;47.048;15.390;2022-09-17T11:58:53;1.30;;;0.40;;
12758;SDS011;20944;47.048;15.390;2022-09-17T12:01:26;0.40;;;0.40;;
12758;SDS011;20944;47.048;15.390;2022-09-17T12:04:06;0.40;;;0.40;;
12758;SDS011;20944;47.048;15.390;2022-09-17T12:06:53;1.43;;;0.30;;
12758;SDS011;20944;47.048;15.390;2022-09-17T12:09:28;1.67;;;0.30;;
12758;SDS011;20944;47.048;15.390;2022-09-17T12:12:02;0.40;;;0.23;;
12758;SDS011;20944;47.048;15.390;2022-09-17T12:14:48;1.40;;;0.20;;
12758;SDS011;20944;47.048;15.390;2022-09-17T12:17:20;0.20;;;0.20;;
12758;SDS011;20944;47.048;15.390;2022-09-17T12:19:55;0.90;;;0.30;;
12758;SDS011;20944;47.048;15.390;2022-09-17T12:22:26;0.20;;;0.20;;
12758;SDS011;20944;47.048;15.390;2022-09-17T12:25:11;0.20;;;0.20;;
12758;SDS011;20944;47.048;15.390;2022-09-17T12:27:40;0.30;;;0.30;;
12758;SDS011;20944;47.048;15.390;2022-09-17T12:30:18;0.47;;;0.47;;
12758;SDS011;20944;47.048;15.390;2022-09-17T12:39:04;0.60;;;0.50;;
12758;SDS011;20944;47.048;15.390;2022-09-17T12:41:53;1.03;;;0.40;;
12758;SDS011;20944;47.048;15.390;2022-09-17T12:44:39;0.93;;;0.30;;
12758;SDS011;20944;47.048;15.390;2022-09-17T12:47:38;0.60;;;0.33;;
12758;SDS011;20944;47.048;15.390;2022-09-17T12:50:32;0.30;;;0.30;;
12758;SDS011;20944;47.048;15.390;2022-09-17T12:53:12;0.30;;;0.30;;
12758;SDS011;20944;47.048;15.390;2022-09-17T12:55:52;0.30;;;0.30;;
12758;SDS011;20944;47.048;15.390;2022-09-17T12:58:36;0.20;;;0.20;;
12758;SDS011;20944;47.048;15.390;2022-09-17T13:01:25;0.30;;;0.30;;
12758;SDS011;20944;47.048;15.390;2022-09-17T13:03:59;0.40;;;0.30;;
12758;SDS011;20944;47.048;15.390;2022-09-17T13:07:03;0.63;;;0.50;;
12758;SDS011;20944;47.048;15.390;2022-09-17T13:09:52;2.63;;;0.50;;
12758;SDS011;20944;47.048;15.390;2022-09-17T13:12:41;0.90;;;0.30;;
12758;SDS011;20944;47.048;15.390;2022-09-17T13:15:32;0.50;;;0.50;;
12758;SDS011;20944;47.048;15.390;2022-09-17T13:18:09;2.23;;;0.40;;
12758;SDS011;20944;47.048;15.390;2022-09-17T13:21:02;0.50;;;0.40;;
12758;SDS011;20944;47.048;15.390;2022-09-17T13:23:40;0.37;;;0.37;;
12758;SDS011;20944;47.048;15.390;2022-09-17T13:26:10;0.30;;;0.30;;
12758;SDS011;20944;47.048;15.390;2022-09-17T13:28:43;0.27;;;0.27;;
12758;SDS011;20944;47.048;15.390;2022-09-17T13:31:19;0.27;;;0.27;;
12758;SDS011;20944;47.048;15.390;2022-09-17T13:33:53;0.87;;;0.40;;
12758;SDS011;20944;47.048;15.390;2022-09-17T13:36:41;1.57;;;0.40;;
12758;SDS011;20944;47.048;15.390;2022-09-17T13:42:04;1.60;;;0.30;;
12758;SDS011;20944;47.048;15.390;2022-09-17T13:44:38;0.40;;;0.40;;
12758;SDS011;20944;47.048;15.390;2022-09-17T13:47:14;0.97;;;0.70;;
12758;SDS011;20944;47.048;15.390;2022-09-17T13:49:47;0.40;;;0.37;;
12758;SDS011;20944;47.048;15.390;2022-09-17T13:52:27;0.73;;;0.40;;
12758;SDS011;20944;47.048;15.390;2022-09-17T13:54:59;0.40;;;0.40;;
12758;SDS011;20944;47.048;15.390;2022-09-17T13:57:29;0.77;;;0.20;;
12758;SDS011;20944;47.048;15.390;2022-09-17T14:00:00;0.60;;;0.40;;
12758;SDS011;20944;47.048;15.390;2022-09-17T14:02:32;0.20;;;0.20;;
12758;SDS011;20944;47.048;15.390;2022-09-17T14:07:51;1.77;;;0.53;;
12758;SDS011;20944;47.048;15.390;2022-09-17T14:10:57;0.60;;;0.30;;
12758;SDS011;20944;47.048;15.390;2022-09-17T14:13:38;0.90;;;0.30;;
12758;SDS011;20944;47.048;15.390;2022-09-17T14:19:18;0.20;;;0.20;;
12758;SDS011;20944;47.048;15.390;2022-09-17T14:21:55;2.73;;;0.30;;
12758;SDS011;20944;47.048;15.390;2022-09-17T14:24:31;0.20;;;0.20;;
12758;SDS011;20944;47.048;15.390;2022-09-17T14:27:05;0.30;;;0.30;;
12758;SDS011;20944;47.048;15.390;2022-09-17T14:29:54;1.83;;;0.30;;
12758;SDS011;20944;47.048;15.390;2022-09-17T14:32:39;0.60;;;0.20;;
12758;SDS011;20944;47.048;15.390;2022-09-17T14:35:15;1.90;;;0.30;;
12758;SDS011;20944;47.048;15.390;2022-09-17T14:37:47;2.93;;;0.30;;
12758;SDS011;20944;47.048;15.390;2022-09-17T14:40:20;2.60;;;0.30;;
12758;SDS011;20944;47.048;15.390;2022-09-17T14:42:51;0.80;;;0.40;;
12758;SDS011;20944;47.048;15.390;2022-09-17T14:45:23;0.50;;;0.30;;
12758;SDS011;20944;47.048;15.390;2022-09-17T14:50:47;0.37;;;0.33;;
12758;SDS011;20944;47.048;15.390;2022-09-17T14:53:16;0.20;;;0.20;;
12758;SDS011;20944;47.048;15.390;2022-09-17T14:55:46;0.70;;;0.30;;
12758;SDS011;20944;47.048;15.390;2022-09-17T14:58:29;0.30;;;0.30;;
12758;SDS011;20944;47.048;15.390;2022-09-17T15:01:01;1.57;;;0.20;;
12758;SDS011;20944;47.048;15.390;2022-09-17T15:03:30;0.23;;;0.23;;
12758;SDS011;20944;47.048;15.390;2022-09-17T15:05:59;1.07;;;0.70;;
12758;SDS011;20944;47.048;15.390;2022-09-17T15:08:28;0.30;;;0.30;;
12758;SDS011;20944;47.048;15.390;2022-09-17T15:10:57;0.30;;;0.20;;
12758;SDS011;20944;47.048;15.390;2022-09-17T15:13:28;1.27;;;0.20;;
12758;SDS011;20944;47.048;15.390;2022-09-17T15:15:59;0.20;;;0.20;;
12758;SDS011;20944;47.048;15.390;2022-09-17T15:18:31;0.30;;;0.30;;
12758;SDS011;20944;47.048;15.390;2022-09-17T15:21:05;0.60;;;0.40;;
12758;SDS011;20944;47.048;15.390;2022-09-17T15:23:49;1.17;;;0.47;;
12758;SDS011;20944;47.048;15.390;2022-09-17T15:26:23;0.50;;;0.30;;
12758;SDS011;20944;47.048;15.390;2022-09-17T15:28:55;1.00;;;0.40;;
12758;SDS011;20944;47.048;15.390;2022-09-17T15:31:25;0.80;;;0.40;;
12758;SDS011;20944;47.048;15.390;2022-09-17T15:33:57;0.57;;;0.50;;
12758;SDS011;20944;47.048;15.390;2022-09-17T15:36:28;0.60;;;0.40;;
12758;SDS011;20944;47.048;15.390;2022-09-17T15:38:57;1.60;;;0.50;;
12758;SDS011;20944;47.048;15.390;2022-09-17T15:41:29;0.57;;;0.50;;
12758;SDS011;20944;47.048;15.390;2022-09-17T15:44:06;0.80;;;0.80;;